createdAt,value
2023-01-31T00:01:17.893Z,5.19
2023-01-31T00:04:21.918Z,5.19
2023-01-31T00:07:24.566Z,5.23
2023-01-31T00:10:27.244Z,5.18
2023-01-31T00:13:29.857Z,5.18
2023-01-31T00:16:33.215Z,5.21
2023-01-31T00:19:37.341Z,5.23
2023-01-31T00:22:40.234Z,5.24
2023-01-31T00:25:42.928Z,5.26
2023-01-31T00:28:47.102Z,5.30
2023-01-31T00:31:49.894Z,5.31
2023-01-31T00:34:54.614Z,5.29
2023-01-31T00:37:57.316Z,5.29
2023-01-31T00:41:00.234Z,5.33
2023-01-31T00:44:04.125Z,5.38
2023-01-31T00:47:06.846Z,5.36
2023-01-31T00:50:15.924Z,5.31
2023-01-31T00:53:23.357Z,5.30
2023-01-31T00:56:26.775Z,5.28
2023-01-31T00:59:29.460Z,5.21
2023-01-31T01:02:32.193Z,5.24
2023-01-31T01:05:37.385Z,5.32
2023-01-31T01:08:41.757Z,5.34
2023-01-31T01:11:44.564Z,5.35
2023-01-31T01:14:47.938Z,5.32
2023-01-31T01:17:51.135Z,5.38
2023-01-31T01:20:55.186Z,5.38
2023-01-31T01:24:00.555Z,5.27
2023-01-31T01:27:05.102Z,5.35
2023-01-31T01:30:09.444Z,5.40
2023-01-31T01:33:12.144Z,5.37
2023-01-31T01:36:22.268Z,5.30
2023-01-31T01:39:26.017Z,5.42
2023-01-31T01:42:34.574Z,5.45
2023-01-31T01:45:37.314Z,5.47
2023-01-31T01:48:40.264Z,5.48
2023-01-31T01:51:46.090Z,5.42
2023-01-31T01:54:51.977Z,5.37
2023-01-31T01:58:01.999Z,5.38
2023-01-31T02:01:06.912Z,5.39
2023-01-31T02:04:23.576Z,5.33
2023-01-31T02:07:28.009Z,5.37
2023-01-31T02:10:34.427Z,5.39
2023-01-31T02:13:39.471Z,5.37
2023-01-31T02:16:42.384Z,5.37
2023-01-31T02:19:59.144Z,5.37
2023-01-31T02:23:31.340Z,5.37
2023-01-31T02:27:05.124Z,5.40
2023-01-31T02:30:32.037Z,5.33
2023-01-31T02:33:43.208Z,5.33
2023-01-31T02:36:59.549Z,5.30
2023-01-31T02:40:14.683Z,5.34
2023-01-31T02:43:25.304Z,5.31
2023-01-31T02:46:35.375Z,5.28
2023-01-31T02:49:45.641Z,5.30
2023-01-31T02:52:52.478Z,5.22
2023-01-31T02:56:18.858Z,5.20
2023-01-31T02:59:27.010Z,5.17
2023-01-31T03:02:30.363Z,5.09
2023-01-31T03:05:34.497Z,5.00
2023-01-31T03:08:38.321Z,4.95
2023-01-31T03:11:49.296Z,4.93
2023-01-31T03:15:02.673Z,4.92
2023-01-31T03:18:10.336Z,4.94
2023-01-31T03:21:18.808Z,4.91
2023-01-31T03:24:26.156Z,4.93
2023-01-31T03:27:29.611Z,5.02
2023-01-31T03:30:37.069Z,5.00
2023-01-31T03:33:43.329Z,4.99
2023-01-31T03:36:55.143Z,5.00
2023-01-31T03:40:04.547Z,5.07
2023-01-31T03:43:13.806Z,5.08
2023-01-31T03:46:22.634Z,5.14
2023-01-31T03:49:28.558Z,5.12
2023-01-31T03:52:37.737Z,5.15
2023-01-31T03:55:44.620Z,5.17
2023-01-31T03:58:50.875Z,5.17
2023-01-31T04:01:58.695Z,5.30
2023-01-31T04:05:07.122Z,5.08
2023-01-31T04:08:12.088Z,5.14
2023-01-31T04:11:16.335Z,5.13
2023-01-31T04:14:19.432Z,5.10
2023-01-31T04:17:22.190Z,5.17
2023-01-31T04:20:24.941Z,5.11
2023-01-31T04:23:29.075Z,5.07
2023-01-31T04:26:32.210Z,5.09
2023-01-31T04:29:34.980Z,5.11
2023-01-31T04:32:37.726Z,5.07
2023-01-31T04:35:40.955Z,5.17
2023-01-31T04:38:44.997Z,5.06
2023-01-31T04:41:47.667Z,5.02
2023-01-31T04:44:50.409Z,5.01
2023-01-31T04:47:53.174Z,5.05
2023-01-31T04:50:55.845Z,4.99
2023-01-31T04:53:59.893Z,5.01
2023-01-31T04:57:03.375Z,5.02
2023-01-31T05:00:07.592Z,4.98
2023-01-31T05:03:10.242Z,4.95
2023-01-31T05:06:13.183Z,4.95
2023-01-31T05:09:18.018Z,4.91
2023-01-31T05:12:21.261Z,4.92
2023-01-31T05:15:23.948Z,4.96
2023-01-31T05:18:26.960Z,4.96
2023-01-31T05:21:29.616Z,4.93
2023-01-31T05:24:34.368Z,4.94
2023-01-31T05:27:37.009Z,4.91
2023-01-31T05:30:39.815Z,4.94
2023-01-31T05:33:43.082Z,4.88
2023-01-31T05:36:45.747Z,4.82
2023-01-31T05:39:49.751Z,4.76
2023-01-31T05:42:56.013Z,4.65
2023-01-31T05:45:58.767Z,4.47
2023-01-31T05:49:02.113Z,4.31
2023-01-31T05:52:04.926Z,4.17
2023-01-31T05:55:09.872Z,4.06
2023-01-31T05:58:12.583Z,4.00
2023-01-31T06:01:15.420Z,3.94
2023-01-31T06:04:18.113Z,3.94
2023-01-31T06:07:21.602Z,3.98
2023-01-31T06:10:25.791Z,4.02
2023-01-31T06:13:28.456Z,4.13
2023-01-31T06:16:31.275Z,4.24
2023-01-31T06:19:34.244Z,4.26
2023-01-31T06:22:37.002Z,4.26
2023-01-31T06:25:41.153Z,4.26
2023-01-31T06:28:46.041Z,4.25
2023-01-31T06:31:49.093Z,4.28
2023-01-31T06:34:51.891Z,4.26
2023-01-31T06:37:55.969Z,4.26
2023-01-31T06:41:00.147Z,4.26
2023-01-31T06:44:02.897Z,4.32
2023-01-31T06:47:05.813Z,4.42
2023-01-31T06:50:09.232Z,4.36
2023-01-31T06:53:11.937Z,4.35
2023-01-31T06:56:15.983Z,4.30
2023-01-31T06:59:18.624Z,4.33
2023-01-31T07:02:21.862Z,4.23
2023-01-31T07:05:24.871Z,4.36
2023-01-31T07:08:27.565Z,4.40
2023-01-31T07:11:31.645Z,4.35
2023-01-31T07:14:34.324Z,4.38
2023-01-31T07:17:37.031Z,4.36
2023-01-31T07:20:40.735Z,4.46
2023-01-31T07:23:43.470Z,4.53
2023-01-31T07:26:47.570Z,4.60
2023-01-31T07:29:50.435Z,4.68
2023-01-31T07:32:53.209Z,4.71
2023-01-31T07:35:55.857Z,4.72
2023-01-31T07:39:00.069Z,4.79
2023-01-31T07:42:04.110Z,4.81
2023-01-31T07:45:22.418Z,4.84
2023-01-31T07:48:26.231Z,5.14
2023-01-31T07:51:28.910Z,5.19
2023-01-31T07:54:31.973Z,5.20
2023-01-31T07:57:36.340Z,5.19
2023-01-31T08:00:56.733Z,5.08
2023-01-31T08:04:10.701Z,5.09
2023-01-31T08:07:21.225Z,5.14
2023-01-31T08:10:23.877Z,5.12
2023-01-31T08:13:27.948Z,5.15
2023-01-31T08:16:32.026Z,5.14
2023-01-31T08:19:35.328Z,5.17
2023-01-31T08:22:38.231Z,5.16
2023-01-31T08:25:41.009Z,5.18
2023-01-31T08:28:46.366Z,5.23
2023-01-31T08:31:51.155Z,5.33
2023-01-31T08:34:54.824Z,5.51
2023-01-31T08:38:10.322Z,5.64
2023-01-31T08:41:20.026Z,5.69
2023-01-31T08:44:24.091Z,5.80
2023-01-31T08:47:26.878Z,5.79
2023-01-31T08:50:32.740Z,5.78
2023-01-31T08:53:36.539Z,5.79
2023-01-31T08:56:39.204Z,5.87
2023-01-31T08:59:43.322Z,5.83
2023-01-31T09:02:47.443Z,5.82
2023-01-31T09:05:50.156Z,5.76
2023-01-31T09:08:52.846Z,5.80
2023-01-31T09:11:55.550Z,5.81
2023-01-31T09:14:59.539Z,5.86
2023-01-31T09:18:02.263Z,5.91
2023-01-31T09:21:06.097Z,5.97
2023-01-31T09:24:11.947Z,6.01
2023-01-31T09:27:14.646Z,6.01
2023-01-31T09:30:19.341Z,6.00
2023-01-31T09:33:22.747Z,6.06
2023-01-31T09:36:25.886Z,6.09
2023-01-31T09:39:28.593Z,6.02
2023-01-31T09:42:36.148Z,5.86
2023-01-31T09:45:44.033Z,5.76
2023-01-31T09:48:52.038Z,5.78
2023-01-31T09:51:59.598Z,5.74
2023-01-31T09:55:03.226Z,5.64
2023-01-31T09:58:15.246Z,5.50
2023-01-31T10:01:25.748Z,5.45
2023-01-31T10:04:44.033Z,5.45
2023-01-31T10:07:54.725Z,5.50
2023-01-31T10:11:02.160Z,5.98
2023-01-31T10:14:18.782Z,6.45
2023-01-31T10:17:28.021Z,6.62
2023-01-31T10:20:37.225Z,6.96
2023-01-31T10:23:45.576Z,7.21
2023-01-31T10:26:52.844Z,7.17
2023-01-31T10:29:58.951Z,7.31
2023-01-31T10:33:18.341Z,7.37
2023-01-31T10:36:29.453Z,7.38
2023-01-31T10:39:35.243Z,7.25
2023-01-31T10:42:40.566Z,7.13
2023-01-31T10:45:43.375Z,7.05
2023-01-31T10:48:49.323Z,6.94
2023-01-31T10:52:08.762Z,6.96
2023-01-31T10:55:30.959Z,6.98
2023-01-31T10:58:35.271Z,7.05
2023-01-31T11:01:38.520Z,7.05
2023-01-31T11:04:43.903Z,7.04
2023-01-31T11:07:47.430Z,7.06
2023-01-31T11:10:52.775Z,7.08
2023-01-31T11:13:58.325Z,7.04
2023-01-31T11:17:06.295Z,7.05
2023-01-31T11:20:22.513Z,7.00
2023-01-31T11:23:27.688Z,6.98
2023-01-31T11:26:33.259Z,6.97
2023-01-31T11:29:39.167Z,6.97
2023-01-31T11:32:44.701Z,6.96
2023-01-31T11:35:53.145Z,6.94
2023-01-31T11:38:55.919Z,6.97
2023-01-31T11:41:59.489Z,7.01
2023-01-31T11:45:03.683Z,7.02
2023-01-31T11:48:12.046Z,7.03
2023-01-31T11:51:27.797Z,6.98
2023-01-31T11:54:33.241Z,6.99
2023-01-31T11:57:37.562Z,7.01
2023-01-31T12:00:53.650Z,7.01
2023-01-31T12:04:03.693Z,7.19
2023-01-31T12:07:23.394Z,7.17
2023-01-31T12:10:34.589Z,7.25
2023-01-31T12:13:48.083Z,7.30
2023-01-31T12:16:51.818Z,7.18
2023-01-31T12:20:27.541Z,7.17
2023-01-31T12:23:40.715Z,7.10
2023-01-31T12:26:48.873Z,7.03
2023-01-31T12:30:17.045Z,6.99
2023-01-31T12:33:36.537Z,6.93
2023-01-31T12:36:54.476Z,6.90
2023-01-31T12:40:25.665Z,6.75
2023-01-31T12:43:54.937Z,6.74
2023-01-31T12:47:18.294Z,6.64
2023-01-31T12:50:38.921Z,6.56
2023-01-31T12:53:55.095Z,6.59
2023-01-31T12:57:12.944Z,6.53
2023-01-31T13:00:28.079Z,6.61
2023-01-31T13:03:50.039Z,6.61
2023-01-31T13:06:58.033Z,6.64
2023-01-31T13:10:03.147Z,6.66
2023-01-31T13:13:17.149Z,6.62
2023-01-31T13:16:22.879Z,6.64
2023-01-31T13:19:30.803Z,6.64
2023-01-31T13:22:41.759Z,6.65
2023-01-31T13:25:50.796Z,6.66
2023-01-31T13:29:00.641Z,6.70
2023-01-31T13:32:06.126Z,6.73
2023-01-31T13:35:17.872Z,6.74
2023-01-31T13:38:22.104Z,6.71
2023-01-31T13:41:29.326Z,6.69
2023-01-31T13:44:33.649Z,6.63
2023-01-31T13:47:46.125Z,6.70
2023-01-31T13:50:54.314Z,6.71
2023-01-31T13:54:00.527Z,6.69
2023-01-31T13:57:04.780Z,6.69
2023-01-31T14:00:25.721Z,6.73
2023-01-31T14:03:28.529Z,6.69
2023-01-31T14:06:55.436Z,6.71
2023-01-31T14:10:37.893Z,6.72
2023-01-31T14:13:44.351Z,6.78
2023-01-31T14:16:51.717Z,6.81
2023-01-31T14:20:06.903Z,6.78
2023-01-31T14:23:45.409Z,6.77
2023-01-31T14:26:55.756Z,6.82
2023-01-31T14:30:10.395Z,6.76
2023-01-31T14:33:24.355Z,6.75
2023-01-31T14:36:43.696Z,6.69
2023-01-31T14:40:11.492Z,6.74
2023-01-31T14:43:31.662Z,6.65
2023-01-31T14:46:46.039Z,6.55
2023-01-31T14:50:08.482Z,6.63
2023-01-31T14:53:39.809Z,6.61
2023-01-31T14:56:54.999Z,6.58
2023-01-31T15:00:01.978Z,6.55
2023-01-31T15:03:09.042Z,6.57
2023-01-31T15:06:16.607Z,6.49
2023-01-31T15:09:38.512Z,6.52
2023-01-31T15:12:55.696Z,6.55
2023-01-31T15:15:59.029Z,6.51
2023-01-31T15:19:08.555Z,6.51
2023-01-31T15:22:13.511Z,6.54
2023-01-31T15:25:27.609Z,6.55
2023-01-31T15:28:34.858Z,6.53
2023-01-31T15:31:42.206Z,6.45
2023-01-31T15:34:54.464Z,6.54
2023-01-31T15:38:03.796Z,6.55
2023-01-31T15:41:18.319Z,6.51
2023-01-31T15:44:23.527Z,6.53
2023-01-31T15:47:26.375Z,6.49
2023-01-31T15:50:31.302Z,6.46
2023-01-31T15:53:35.326Z,6.45
2023-01-31T15:56:41.496Z,6.50
2023-01-31T15:59:48.051Z,6.44
2023-01-31T16:03:00.086Z,6.42
2023-01-31T16:06:04.779Z,6.40
2023-01-31T16:09:25.186Z,6.37
2023-01-31T16:12:29.033Z,6.37
2023-01-31T16:15:33.089Z,6.37
2023-01-31T16:18:37.787Z,6.37
2023-01-31T16:21:42.695Z,6.35
2023-01-31T16:24:55.621Z,6.34
2023-01-31T16:28:02.332Z,6.37
2023-01-31T16:31:07.748Z,6.37
2023-01-31T16:34:23.601Z,6.37
2023-01-31T16:37:33.215Z,6.37
2023-01-31T16:40:45.873Z,6.36
2023-01-31T16:43:52.543Z,6.33
2023-01-31T16:46:55.481Z,6.34
2023-01-31T16:50:41.963Z,6.33
2023-01-31T16:53:45.859Z,6.35
2023-01-31T16:57:07.200Z,6.35
2023-01-31T17:00:36.159Z,6.34
2023-01-31T17:03:39.842Z,6.33
2023-01-31T17:06:43.200Z,6.35
2023-01-31T17:09:47.575Z,6.36
2023-01-31T17:12:52.338Z,6.30
2023-01-31T17:15:55.054Z,6.31
2023-01-31T17:18:57.732Z,6.34
2023-01-31T17:22:00.387Z,6.32
2023-01-31T17:25:03.315Z,6.31
2023-01-31T17:28:08.160Z,6.33
2023-01-31T17:31:18.882Z,6.39
2023-01-31T17:34:21.580Z,6.35
2023-01-31T17:37:31.596Z,6.42
2023-01-31T17:40:35.269Z,6.39
2023-01-31T17:43:39.582Z,6.40
2023-01-31T17:46:43.094Z,6.37
2023-01-31T17:49:45.891Z,6.38
2023-01-31T17:52:48.798Z,6.36
2023-01-31T17:55:51.797Z,6.41
2023-01-31T17:58:55.890Z,6.38
2023-01-31T18:02:00.566Z,6.40
2023-01-31T18:05:04.732Z,6.38
2023-01-31T18:08:07.440Z,6.43
2023-01-31T18:11:12.144Z,6.45
2023-01-31T18:14:16.248Z,6.45
2023-01-31T18:17:20.183Z,6.47
2023-01-31T18:20:22.961Z,6.49
2023-01-31T18:23:25.775Z,6.48
2023-01-31T18:26:29.384Z,6.44
2023-01-31T18:29:33.517Z,6.48
2023-01-31T18:32:36.486Z,6.45
2023-01-31T18:35:39.166Z,6.43
2023-01-31T18:38:43.634Z,6.33
2023-01-31T18:41:46.468Z,6.39
2023-01-31T18:44:50.465Z,6.34
2023-01-31T18:47:53.254Z,6.29
2023-01-31T18:50:56.241Z,6.32
2023-01-31T18:53:59.066Z,6.29
2023-01-31T18:57:02.237Z,6.29
2023-01-31T19:00:07.336Z,6.29
2023-01-31T19:03:10.282Z,6.30
2023-01-31T19:06:14.960Z,6.32
2023-01-31T19:09:18.457Z,6.36
2023-01-31T19:12:21.389Z,6.29
2023-01-31T19:15:27.255Z,6.34
2023-01-31T19:18:30.310Z,6.35
2023-01-31T19:21:34.823Z,6.39
2023-01-31T19:24:37.525Z,6.42
2023-01-31T19:27:41.397Z,6.43
2023-01-31T19:30:45.482Z,6.43
2023-01-31T19:33:50.103Z,6.46
2023-01-31T19:36:52.866Z,6.44
2023-01-31T19:39:55.715Z,6.46
2023-01-31T19:42:58.834Z,6.46
2023-01-31T19:46:03.356Z,6.45
2023-01-31T19:49:06.771Z,6.49
2023-01-31T19:52:09.640Z,6.46
2023-01-31T19:55:12.563Z,6.42
2023-01-31T19:58:15.341Z,6.44
2023-01-31T20:01:19.911Z,6.42
2023-01-31T20:04:22.840Z,6.49
2023-01-31T20:07:26.954Z,6.48
2023-01-31T20:10:31.130Z,6.48
2023-01-31T20:13:33.911Z,6.44
2023-01-31T20:16:38.019Z,6.46
2023-01-31T20:19:41.088Z,6.47
2023-01-31T20:22:43.912Z,6.41
2023-01-31T20:25:49.014Z,6.53
2023-01-31T20:28:51.769Z,6.46
2023-01-31T20:31:55.942Z,6.53
2023-01-31T20:35:00.347Z,6.53
2023-01-31T20:38:03.084Z,6.53
2023-01-31T20:41:07.193Z,6.53
2023-01-31T20:44:10.126Z,6.55
2023-01-31T20:47:14.337Z,6.59
2023-01-31T20:50:17.687Z,6.62
2023-01-31T20:53:21.202Z,6.57
2023-01-31T20:56:23.855Z,6.51
2023-01-31T20:59:26.784Z,6.55
2023-01-31T21:02:31.030Z,6.49
2023-01-31T21:05:38.541Z,6.51
2023-01-31T21:08:41.885Z,6.54
2023-01-31T21:11:45.116Z,6.56
2023-01-31T21:14:48.495Z,6.41
2023-01-31T21:17:53.074Z,6.55
2023-01-31T21:20:56.336Z,6.54
2023-01-31T21:24:00.119Z,6.57
2023-01-31T21:27:04.264Z,6.51
2023-01-31T21:30:09.330Z,6.48
2023-01-31T21:33:15.195Z,6.51
2023-01-31T21:36:20.938Z,6.56
2023-01-31T21:39:24.091Z,6.51
2023-01-31T21:42:27.126Z,6.55
2023-01-31T21:45:42.648Z,6.58
2023-01-31T21:48:47.369Z,6.60
2023-01-31T21:51:50.736Z,6.61
2023-01-31T21:54:53.823Z,6.64
2023-01-31T21:57:56.938Z,6.65
2023-01-31T22:01:05.116Z,6.66
2023-01-31T22:04:09.800Z,6.71
2023-01-31T22:07:12.928Z,6.52
2023-01-31T22:10:16.172Z,6.71
2023-01-31T22:13:19.306Z,6.78
2023-01-31T22:16:25.552Z,6.78
2023-01-31T22:19:30.253Z,6.78
2023-01-31T22:22:33.448Z,6.81
2023-01-31T22:25:37.719Z,6.80
2023-01-31T22:28:41.666Z,6.78
2023-01-31T22:31:45.440Z,6.78
2023-01-31T22:34:49.997Z,6.75
2023-01-31T22:37:53.080Z,6.68
2023-01-31T22:40:58.477Z,6.69
2023-01-31T22:44:01.838Z,6.70
2023-01-31T22:47:05.027Z,6.72
2023-01-31T22:50:12.568Z,6.68
2023-01-31T22:53:17.373Z,6.74
2023-01-31T22:56:23.122Z,6.65
2023-01-31T22:59:26.264Z,6.69
2023-01-31T23:02:29.642Z,6.71
2023-01-31T23:05:34.303Z,6.69
2023-01-31T23:08:37.400Z,6.71
2023-01-31T23:11:40.888Z,6.74
2023-01-31T23:14:43.965Z,6.79
2023-01-31T23:17:47.552Z,6.76
2023-01-31T23:20:52.114Z,6.72
2023-01-31T23:23:55.048Z,6.72
2023-01-31T23:26:58.098Z,6.70
2023-01-31T23:30:01.340Z,6.69
2023-01-31T23:33:04.507Z,6.74
2023-01-31T23:36:09.719Z,6.67
2023-01-31T23:39:12.910Z,6.72
2023-01-31T23:42:16.503Z,6.68
2023-01-31T23:45:19.687Z,6.67
2023-01-31T23:48:22.671Z,6.67
2023-01-31T23:51:28.636Z,6.64
2023-01-31T23:54:31.789Z,6.62
2023-01-31T23:57:35.002Z,6.58
